sensor_id;sensor_type;location;lat;lon;timestamp;P1;durP1;ratioP1;P2;durP2;ratioP2
4903;SDS011;2467;48.142;11.616;2023-10-19T00:00:00;22.90;;;20.50;;
4903;SDS011;2467;48.142;11.616;2023-10-19T00:00:50;20.98;;;18.88;;
4903;SDS011;2467;48.142;11.616;2023-10-19T00:01:27;21.73;;;19.58;;
4903;SDS011;2467;48.142;11.616;2023-10-19T00:01:59;21.50;;;19.27;;
4903;SDS011;2467;48.142;11.616;2023-10-19T00:02:32;19.95;;;18.00;;
4903;SDS011;2467;48.142;11.616;2023-10-19T00:03:05;21.30;;;19.13;;
4903;SDS011;2467;48.142;11.616;2023-10-19T00:03:38;22.17;;;19.88;;
4903;SDS011;2467;48.142;11.616;2023-10-19T00:04:10;21.20;;;19.00;;
4903;SDS011;2467;48.142;11.616;2023-10-19T00:04:42;22.05;;;20.05;;
4903;SDS011;2467;48.142;11.616;2023-10-19T00:05:14;22.90;;;20.60;;
4903;SDS011;2467;48.142;11.616;2023-10-19T00:05:47;23.35;;;20.98;;
4903;SDS011;2467;48.142;11.616;2023-10-19T00:06:19;22.45;;;20.33;;
4903;SDS011;2467;48.142;11.616;2023-10-19T00:06:51;21.98;;;19.88;;
4903;SDS011;2467;48.142;11.616;2023-10-19T00:07:25;21.90;;;19.90;;
4903;SDS011;2467;48.142;11.616;2023-10-19T00:07:57;21.05;;;19.13;;
4903;SDS011;2467;48.142;11.616;2023-10-19T00:08:31;21.52;;;19.38;;
4903;SDS011;2467;48.142;11.616;2023-10-19T00:09:12;21.88;;;19.83;;
4903;SDS011;2467;48.142;11.616;2023-10-19T00:09:46;21.90;;;19.90;;
4903;SDS011;2467;48.142;11.616;2023-10-19T00:10:23;19.70;;;17.73;;
4903;SDS011;2467;48.142;11.616;2023-10-19T00:10:57;22.00;;;19.63;;
4903;SDS011;2467;48.142;11.616;2023-10-19T00:11:34;20.52;;;18.63;;
4903;SDS011;2467;48.142;11.616;2023-10-19T00:12:07;23.02;;;21.02;;
4903;SDS011;2467;48.142;11.616;2023-10-19T00:12:41;20.90;;;18.90;;
4903;SDS011;2467;48.142;11.616;2023-10-19T00:13:13;21.67;;;19.70;;
4903;SDS011;2467;48.142;11.616;2023-10-19T00:13:45;23.05;;;20.75;;
4903;SDS011;2467;48.142;11.616;2023-10-19T00:14:17;20.63;;;18.60;;
4903;SDS011;2467;48.142;11.616;2023-10-19T00:14:49;20.50;;;18.45;;
4903;SDS011;2467;48.142;11.616;2023-10-19T00:15:21;21.80;;;19.80;;
4903;SDS011;2467;48.142;11.616;2023-10-19T00:15:55;23.15;;;19.52;;
4903;SDS011;2467;48.142;11.616;2023-10-19T00:16:30;20.95;;;18.95;;
4903;SDS011;2467;48.142;11.616;2023-10-19T00:17:07;21.15;;;19.20;;
4903;SDS011;2467;48.142;11.616;2023-10-19T00:17:42;22.00;;;19.80;;
4903;SDS011;2467;48.142;11.616;2023-10-19T00:18:16;20.60;;;18.70;;
4903;SDS011;2467;48.142;11.616;2023-10-19T00:18:54;21.70;;;19.60;;
4903;SDS011;2467;48.142;11.616;2023-10-19T00:19:31;20.92;;;18.75;;
4903;SDS011;2467;48.142;11.616;2023-10-19T00:20:10;23.17;;;18.58;;
4903;SDS011;2467;48.142;11.616;2023-10-19T00:20:57;20.85;;;18.85;;
4903;SDS011;2467;48.142;11.616;2023-10-19T00:21:31;22.27;;;19.92;;
4903;SDS011;2467;48.142;11.616;2023-10-19T00:22:19;24.30;;;19.60;;
4903;SDS011;2467;48.142;11.616;2023-10-19T00:22:53;20.83;;;18.73;;
4903;SDS011;2467;48.142;11.616;2023-10-19T00:23:28;22.67;;;20.42;;
4903;SDS011;2467;48.142;11.616;2023-10-19T00:24:00;21.50;;;19.40;;
4903;SDS011;2467;48.142;11.616;2023-10-19T00:24:36;22.00;;;19.85;;
4903;SDS011;2467;48.142;11.616;2023-10-19T00:25:10;21.92;;;19.88;;
4903;SDS011;2467;48.142;11.616;2023-10-19T00:25:44;21.52;;;19.50;;
4903;SDS011;2467;48.142;11.616;2023-10-19T00:26:22;21.38;;;19.23;;
4903;SDS011;2467;48.142;11.616;2023-10-19T00:26:56;21.65;;;19.55;;
4903;SDS011;2467;48.142;11.616;2023-10-19T00:27:28;20.77;;;18.75;;
4903;SDS011;2467;48.142;11.616;2023-10-19T00:28:00;21.70;;;19.88;;
4903;SDS011;2467;48.142;11.616;2023-10-19T00:28:35;20.88;;;18.90;;
4903;SDS011;2467;48.142;11.616;2023-10-19T00:29:10;21.77;;;19.67;;
4903;SDS011;2467;48.142;11.616;2023-10-19T00:30:01;22.25;;;20.00;;
4903;SDS011;2467;48.142;11.616;2023-10-19T00:30:37;23.83;;;21.58;;
4903;SDS011;2467;48.142;11.616;2023-10-19T00:31:10;24.00;;;21.52;;
4903;SDS011;2467;48.142;11.616;2023-10-19T00:31:44;20.83;;;18.75;;
4903;SDS011;2467;48.142;11.616;2023-10-19T00:32:16;22.73;;;20.40;;
4903;SDS011;2467;48.142;11.616;2023-10-19T00:32:51;22.02;;;19.67;;
4903;SDS011;2467;48.142;11.616;2023-10-19T00:33:24;23.98;;;21.67;;
4903;SDS011;2467;48.142;11.616;2023-10-19T00:33:59;22.73;;;19.90;;
4903;SDS011;2467;48.142;11.616;2023-10-19T00:34:32;23.90;;;21.50;;
4903;SDS011;2467;48.142;11.616;2023-10-19T00:35:05;20.70;;;18.77;;
4903;SDS011;2467;48.142;11.616;2023-10-19T00:35:59;20.48;;;18.40;;
4903;SDS011;2467;48.142;11.616;2023-10-19T00:36:38;21.30;;;19.30;;
4903;SDS011;2467;48.142;11.616;2023-10-19T00:37:11;20.85;;;18.67;;
4903;SDS011;2467;48.142;11.616;2023-10-19T00:37:50;21.08;;;19.08;;
4903;SDS011;2467;48.142;11.616;2023-10-19T00:38:25;21.02;;;18.98;;
4903;SDS011;2467;48.142;11.616;2023-10-19T00:39:10;20.02;;;18.13;;
4903;SDS011;2467;48.142;11.616;2023-10-19T00:39:47;21.55;;;19.35;;
4903;SDS011;2467;48.142;11.616;2023-10-19T00:40:25;21.13;;;19.02;;
4903;SDS011;2467;48.142;11.616;2023-10-19T00:41:06;21.05;;;19.05;;
4903;SDS011;2467;48.142;11.616;2023-10-19T00:41:43;20.52;;;18.50;;
4903;SDS011;2467;48.142;11.616;2023-10-19T00:42:16;22.00;;;19.98;;
4903;SDS011;2467;48.142;11.616;2023-10-19T00:42:55;21.38;;;19.17;;
4903;SDS011;2467;48.142;11.616;2023-10-19T00:43:28;22.38;;;19.98;;
4903;SDS011;2467;48.142;11.616;2023-10-19T00:44:04;22.50;;;20.40;;
4903;SDS011;2467;48.142;11.616;2023-10-19T00:44:38;21.80;;;19.70;;
4903;SDS011;2467;48.142;11.616;2023-10-19T00:45:13;21.13;;;18.98;;
4903;SDS011;2467;48.142;11.616;2023-10-19T00:45:47;21.83;;;19.67;;
4903;SDS011;2467;48.142;11.616;2023-10-19T00:46:23;21.88;;;19.88;;
4903;SDS011;2467;48.142;11.616;2023-10-19T00:47:02;22.75;;;20.55;;
4903;SDS011;2467;48.142;11.616;2023-10-19T00:47:43;21.30;;;19.30;;
4903;SDS011;2467;48.142;11.616;2023-10-19T00:48:15;22.30;;;20.05;;
4903;SDS011;2467;48.142;11.616;2023-10-19T00:48:49;21.50;;;19.35;;
4903;SDS011;2467;48.142;11.616;2023-10-19T00:49:24;21.33;;;19.17;;
4903;SDS011;2467;48.142;11.616;2023-10-19T00:49:57;22.23;;;19.70;;
4903;SDS011;2467;48.142;11.616;2023-10-19T00:50:34;25.05;;;22.77;;
4903;SDS011;2467;48.142;11.616;2023-10-19T00:51:07;21.92;;;19.77;;
4903;SDS011;2467;48.142;11.616;2023-10-19T00:51:41;20.73;;;18.73;;
4903;SDS011;2467;48.142;11.616;2023-10-19T00:52:26;23.17;;;20.98;;
4903;SDS011;2467;48.142;11.616;2023-10-19T00:52:58;26.85;;;21.90;;
4903;SDS011;2467;48.142;11.616;2023-10-19T00:53:31;22.77;;;20.45;;
4903;SDS011;2467;48.142;11.616;2023-10-19T00:54:06;23.17;;;20.77;;
4903;SDS011;2467;48.142;11.616;2023-10-19T00:54:42;21.30;;;19.42;;
4903;SDS011;2467;48.142;11.616;2023-10-19T00:55:22;22.90;;;20.63;;
4903;SDS011;2467;48.142;11.616;2023-10-19T00:55:57;20.75;;;18.75;;
4903;SDS011;2467;48.142;11.616;2023-10-19T00:56:32;23.00;;;20.67;;
4903;SDS011;2467;48.142;11.616;2023-10-19T00:57:04;20.33;;;18.40;;
4903;SDS011;2467;48.142;11.616;2023-10-19T00:57:39;22.38;;;20.30;;
4903;SDS011;2467;48.142;11.616;2023-10-19T00:58:17;21.02;;;18.92;;
4903;SDS011;2467;48.142;11.616;2023-10-19T00:58:53;23.23;;;20.88;;
4903;SDS011;2467;48.142;11.616;2023-10-19T00:59:31;21.95;;;19.90;;
4903;SDS011;2467;48.142;11.616;2023-10-19T01:00:07;20.75;;;18.65;;
4903;SDS011;2467;48.142;11.616;2023-10-19T01:00:43;23.15;;;20.85;;
4903;SDS011;2467;48.142;11.616;2023-10-19T01:01:15;21.70;;;19.52;;
4903;SDS011;2467;48.142;11.616;2023-10-19T01:01:50;21.23;;;19.27;;
4903;SDS011;2467;48.142;11.616;2023-10-19T01:02:26;21.30;;;19.20;;
4903;SDS011;2467;48.142;11.616;2023-10-19T01:03:00;21.02;;;18.85;;
4903;SDS011;2467;48.142;11.616;2023-10-19T01:03:36;22.92;;;20.83;;
4903;SDS011;2467;48.142;11.616;2023-10-19T01:04:09;22.73;;;20.50;;
4903;SDS011;2467;48.142;11.616;2023-10-19T01:04:45;22.17;;;20.05;;
4903;SDS011;2467;48.142;11.616;2023-10-19T01:05:22;22.48;;;20.23;;
4903;SDS011;2467;48.142;11.616;2023-10-19T01:05:55;23.73;;;21.38;;
4903;SDS011;2467;48.142;11.616;2023-10-19T01:06:29;19.90;;;18.00;;
4903;SDS011;2467;48.142;11.616;2023-10-19T01:07:03;21.63;;;19.52;;
4903;SDS011;2467;48.142;11.616;2023-10-19T01:07:36;23.77;;;21.17;;
4903;SDS011;2467;48.142;11.616;2023-10-19T01:08:10;22.25;;;20.02;;
4903;SDS011;2467;48.142;11.616;2023-10-19T01:08:55;20.40;;;18.40;;
4903;SDS011;2467;48.142;11.616;2023-10-19T01:09:27;22.52;;;20.13;;
4903;SDS011;2467;48.142;11.616;2023-10-19T01:10:00;21.75;;;19.70;;
4903;SDS011;2467;48.142;11.616;2023-10-19T01:10:35;21.20;;;19.15;;
4903;SDS011;2467;48.142;11.616;2023-10-19T01:11:08;21.98;;;19.80;;
4903;SDS011;2467;48.142;11.616;2023-10-19T01:11:42;24.15;;;19.10;;
4903;SDS011;2467;48.142;11.616;2023-10-19T01:12:17;20.77;;;18.77;;
4903;SDS011;2467;48.142;11.616;2023-10-19T01:12:56;21.00;;;18.95;;
4903;SDS011;2467;48.142;11.616;2023-10-19T01:13:30;22.58;;;20.30;;
4903;SDS011;2467;48.142;11.616;2023-10-19T01:14:17;21.30;;;19.25;;
4903;SDS011;2467;48.142;11.616;2023-10-19T01:15:04;21.65;;;19.65;;
4903;SDS011;2467;48.142;11.616;2023-10-19T01:15:44;23.30;;;20.80;;
4903;SDS011;2467;48.142;11.616;2023-10-19T01:16:20;22.67;;;19.98;;
4903;SDS011;2467;48.142;11.616;2023-10-19T01:16:54;20.80;;;18.70;;
4903;SDS011;2467;48.142;11.616;2023-10-19T01:17:28;20.73;;;18.52;;
4903;SDS011;2467;48.142;11.616;2023-10-19T01:18:02;20.95;;;18.85;;
4903;SDS011;2467;48.142;11.616;2023-10-19T01:18:36;21.33;;;19.30;;
4903;SDS011;2467;48.142;11.616;2023-10-19T01:19:12;22.38;;;20.27;;
4903;SDS011;2467;48.142;11.616;2023-10-19T01:19:44;21.65;;;19.65;;
4903;SDS011;2467;48.142;11.616;2023-10-19T01:20:17;21.48;;;19.30;;
4903;SDS011;2467;48.142;11.616;2023-10-19T01:20:51;20.92;;;18.80;;
4903;SDS011;2467;48.142;11.616;2023-10-19T01:21:26;20.17;;;18.23;;
4903;SDS011;2467;48.142;11.616;2023-10-19T01:22:08;21.30;;;19.30;;
4903;SDS011;2467;48.142;11.616;2023-10-19T01:22:49;22.77;;;20.50;;
4903;SDS011;2467;48.142;11.616;2023-10-19T01:23:24;22.45;;;20.27;;
4903;SDS011;2467;48.142;11.616;2023-10-19T01:24:00;21.02;;;18.90;;
4903;SDS011;2467;48.142;11.616;2023-10-19T01:24:32;22.05;;;19.77;;
4903;SDS011;2467;48.142;11.616;2023-10-19T01:25:13;20.20;;;18.33;;
4903;SDS011;2467;48.142;11.616;2023-10-19T01:25:52;21.27;;;19.15;;
4903;SDS011;2467;48.142;11.616;2023-10-19T01:26:36;22.05;;;19.95;;
4903;SDS011;2467;48.142;11.616;2023-10-19T01:27:09;23.67;;;21.30;;
4903;SDS011;2467;48.142;11.616;2023-10-19T01:27:41;23.77;;;21.27;;
4903;SDS011;2467;48.142;11.616;2023-10-19T01:28:13;21.80;;;19.70;;
4903;SDS011;2467;48.142;11.616;2023-10-19T01:28:48;22.30;;;20.15;;
4903;SDS011;2467;48.142;11.616;2023-10-19T01:29:24;24.90;;;22.40;;
4903;SDS011;2467;48.142;11.616;2023-10-19T01:29:58;20.90;;;18.92;;
4903;SDS011;2467;48.142;11.616;2023-10-19T01:30:33;21.90;;;19.75;;
4903;SDS011;2467;48.142;11.616;2023-10-19T01:31:05;22.58;;;20.17;;
4903;SDS011;2467;48.142;11.616;2023-10-19T01:31:38;20.92;;;19.02;;
4903;SDS011;2467;48.142;11.616;2023-10-19T01:32:22;23.65;;;21.17;;
4903;SDS011;2467;48.142;11.616;2023-10-19T01:32:54;20.45;;;18.45;;
4903;SDS011;2467;48.142;11.616;2023-10-19T01:33:28;21.70;;;19.60;;
4903;SDS011;2467;48.142;11.616;2023-10-19T01:34:02;23.67;;;20.73;;
4903;SDS011;2467;48.142;11.616;2023-10-19T01:34:37;22.25;;;20.05;;
4903;SDS011;2467;48.142;11.616;2023-10-19T01:35:09;19.95;;;18.00;;
4903;SDS011;2467;48.142;11.616;2023-10-19T01:35:42;21.48;;;19.40;;
4903;SDS011;2467;48.142;11.616;2023-10-19T01:36:33;21.23;;;18.95;;
4903;SDS011;2467;48.142;11.616;2023-10-19T01:37:13;21.08;;;19.17;;
4903;SDS011;2467;48.142;11.616;2023-10-19T01:37:46;19.15;;;17.25;;
4903;SDS011;2467;48.142;11.616;2023-10-19T01:38:19;21.90;;;19.85;;
4903;SDS011;2467;48.142;11.616;2023-10-19T01:38:51;21.23;;;19.25;;
4903;SDS011;2467;48.142;11.616;2023-10-19T01:39:25;19.38;;;17.45;;
4903;SDS011;2467;48.142;11.616;2023-10-19T01:39:57;22.23;;;20.13;;
4903;SDS011;2467;48.142;11.616;2023-10-19T01:40:29;20.25;;;18.20;;
4903;SDS011;2467;48.142;11.616;2023-10-19T01:41:05;20.75;;;18.75;;
4903;SDS011;2467;48.142;11.616;2023-10-19T01:41:44;20.63;;;18.77;;
4903;SDS011;2467;48.142;11.616;2023-10-19T01:42:16;21.15;;;18.92;;
4903;SDS011;2467;48.142;11.616;2023-10-19T01:42:49;20.40;;;18.40;;
4903;SDS011;2467;48.142;11.616;2023-10-19T01:43:21;21.85;;;19.58;;
4903;SDS011;2467;48.142;11.616;2023-10-19T01:43:53;20.98;;;18.98;;
4903;SDS011;2467;48.142;11.616;2023-10-19T01:44:27;21.75;;;19.63;;
4903;SDS011;2467;48.142;11.616;2023-10-19T01:45:00;21.45;;;19.23;;
4903;SDS011;2467;48.142;11.616;2023-10-19T01:45:32;20.73;;;18.67;;
4903;SDS011;2467;48.142;11.616;2023-10-19T01:46:04;21.90;;;19.90;;
4903;SDS011;2467;48.142;11.616;2023-10-19T01:46:39;21.00;;;18.90;;
4903;SDS011;2467;48.142;11.616;2023-10-19T01:47:15;20.17;;;18.17;;
4903;SDS011;2467;48.142;11.616;2023-10-19T01:47:47;20.63;;;18.63;;
4903;SDS011;2467;48.142;11.616;2023-10-19T01:48:22;19.17;;;17.48;;
4903;SDS011;2467;48.142;11.616;2023-10-19T01:49:04;20.70;;;18.73;;
4903;SDS011;2467;48.142;11.616;2023-10-19T01:49:37;20.83;;;18.77;;
4903;SDS011;2467;48.142;11.616;2023-10-19T01:50:09;20.88;;;18.98;;
4903;SDS011;2467;48.142;11.616;2023-10-19T01:50:50;20.85;;;18.80;;
4903;SDS011;2467;48.142;11.616;2023-10-19T01:51:23;19.00;;;17.20;;
4903;SDS011;2467;48.142;11.616;2023-10-19T01:51:56;21.00;;;19.00;;
4903;SDS011;2467;48.142;11.616;2023-10-19T01:52:28;22.48;;;20.20;;
4903;SDS011;2467;48.142;11.616;2023-10-19T01:53:00;20.30;;;18.30;;
4903;SDS011;2467;48.142;11.616;2023-10-19T01:53:45;21.65;;;19.63;;
4903;SDS011;2467;48.142;11.616;2023-10-19T01:54:17;20.40;;;18.50;;
4903;SDS011;2467;48.142;11.616;2023-10-19T01:54:54;19.00;;;17.15;;
4903;SDS011;2467;48.142;11.616;2023-10-19T01:55:36;19.88;;;17.88;;
4903;SDS011;2467;48.142;11.616;2023-10-19T01:56:08;19.27;;;17.48;;
4903;SDS011;2467;48.142;11.616;2023-10-19T01:56:41;20.40;;;18.25;;
4903;SDS011;2467;48.142;11.616;2023-10-19T01:57:14;19.67;;;17.88;;
4903;SDS011;2467;48.142;11.616;2023-10-19T01:57:46;20.38;;;18.45;;
4903;SDS011;2467;48.142;11.616;2023-10-19T01:58:18;20.88;;;18.92;;
4903;SDS011;2467;48.142;11.616;2023-10-19T01:58:50;21.85;;;19.63;;
4903;SDS011;2467;48.142;11.616;2023-10-19T01:59:23;20.58;;;18.65;;
4903;SDS011;2467;48.142;11.616;2023-10-19T01:59:58;20.55;;;18.45;;
4903;SDS011;2467;48.142;11.616;2023-10-19T02:00:40;19.75;;;17.85;;
4903;SDS011;2467;48.142;11.616;2023-10-19T02:01:15;21.05;;;18.92;;
4903;SDS011;2467;48.142;11.616;2023-10-19T02:01:52;20.58;;;18.67;;
4903;SDS011;2467;48.142;11.616;2023-10-19T02:02:24;21.45;;;19.35;;
4903;SDS011;2467;48.142;11.616;2023-10-19T02:02:56;20.83;;;19.02;;
4903;SDS011;2467;48.142;11.616;2023-10-19T02:03:28;35.20;;;31.75;;
4903;SDS011;2467;48.142;11.616;2023-10-19T02:04:04;63.53;;;56.85;;
4903;SDS011;2467;48.142;11.616;2023-10-19T02:04:37;52.50;;;46.75;;
4903;SDS011;2467;48.142;11.616;2023-10-19T02:05:12;82.82;;;74.20;;
4903;SDS011;2467;48.142;11.616;2023-10-19T02:05:47;89.97;;;80.20;;
4903;SDS011;2467;48.142;11.616;2023-10-19T02:06:21;53.40;;;47.72;;
4903;SDS011;2467;48.142;11.616;2023-10-19T02:06:57;44.08;;;38.83;;
4903;SDS011;2467;48.142;11.616;2023-10-19T02:07:31;38.63;;;34.60;;
4903;SDS011;2467;48.142;11.616;2023-10-19T02:08:06;29.80;;;26.90;;
4903;SDS011;2467;48.142;11.616;2023-10-19T02:08:38;28.08;;;25.08;;
4903;SDS011;2467;48.142;11.616;2023-10-19T02:09:12;25.42;;;23.00;;
4903;SDS011;2467;48.142;11.616;2023-10-19T02:09:52;24.15;;;21.73;;
4903;SDS011;2467;48.142;11.616;2023-10-19T02:10:24;22.48;;;19.85;;
4903;SDS011;2467;48.142;11.616;2023-10-19T02:10:58;22.58;;;18.75;;
4903;SDS011;2467;48.142;11.616;2023-10-19T02:11:33;21.55;;;19.38;;
4903;SDS011;2467;48.142;11.616;2023-10-19T02:12:05;22.73;;;20.40;;
4903;SDS011;2467;48.142;11.616;2023-10-19T02:12:38;22.83;;;20.52;;
4903;SDS011;2467;48.142;11.616;2023-10-19T02:13:13;20.90;;;18.80;;
4903;SDS011;2467;48.142;11.616;2023-10-19T02:13:47;20.83;;;18.77;;
4903;SDS011;2467;48.142;11.616;2023-10-19T02:14:21;22.00;;;19.67;;
4903;SDS011;2467;48.142;11.616;2023-10-19T02:14:54;21.90;;;19.88;;
4903;SDS011;2467;48.142;11.616;2023-10-19T02:15:26;20.85;;;18.67;;
4903;SDS011;2467;48.142;11.616;2023-10-19T02:15:58;18.60;;;16.83;;
4903;SDS011;2467;48.142;11.616;2023-10-19T02:16:30;21.40;;;19.25;;
4903;SDS011;2467;48.142;11.616;2023-10-19T02:17:04;22.42;;;20.27;;
4903;SDS011;2467;48.142;11.616;2023-10-19T02:17:36;19.73;;;17.83;;
4903;SDS011;2467;48.142;11.616;2023-10-19T02:18:24;19.50;;;17.65;;
4903;SDS011;2467;48.142;11.616;2023-10-19T02:18:56;20.67;;;18.70;;
4903;SDS011;2467;48.142;11.616;2023-10-19T02:19:28;19.52;;;17.45;;
4903;SDS011;2467;48.142;11.616;2023-10-19T02:20:00;20.70;;;18.63;;
4903;SDS011;2467;48.142;11.616;2023-10-19T02:20:54;19.83;;;17.92;;
4903;SDS011;2467;48.142;11.616;2023-10-19T02:21:27;20.13;;;18.02;;
4903;SDS011;2467;48.142;11.616;2023-10-19T02:22:02;19.77;;;17.85;;
4903;SDS011;2467;48.142;11.616;2023-10-19T02:22:38;21.02;;;18.92;;
4903;SDS011;2467;48.142;11.616;2023-10-19T02:23:10;20.50;;;18.50;;
4903;SDS011;2467;48.142;11.616;2023-10-19T02:23:44;21.35;;;19.35;;
4903;SDS011;2467;48.142;11.616;2023-10-19T02:24:17;19.85;;;17.85;;
4903;SDS011;2467;48.142;11.616;2023-10-19T02:24:49;19.50;;;17.60;;
4903;SDS011;2467;48.142;11.616;2023-10-19T02:25:21;21.80;;;19.58;;
4903;SDS011;2467;48.142;11.616;2023-10-19T02:25:53;20.63;;;18.60;;
4903;SDS011;2467;48.142;11.616;2023-10-19T02:26:25;19.50;;;17.70;;
4903;SDS011;2467;48.142;11.616;2023-10-19T02:26:58;20.90;;;18.95;;
4903;SDS011;2467;48.142;11.616;2023-10-19T02:27:34;22.85;;;20.65;;
4903;SDS011;2467;48.142;11.616;2023-10-19T02:28:06;22.48;;;19.60;;
4903;SDS011;2467;48.142;11.616;2023-10-19T02:28:38;20.75;;;18.55;;
4903;SDS011;2467;48.142;11.616;2023-10-19T02:29:10;22.73;;;20.52;;
4903;SDS011;2467;48.142;11.616;2023-10-19T02:29:43;23.13;;;20.92;;
4903;SDS011;2467;48.142;11.616;2023-10-19T02:30:17;21.42;;;19.25;;
4903;SDS011;2467;48.142;11.616;2023-10-19T02:30:49;21.25;;;19.35;;
4903;SDS011;2467;48.142;11.616;2023-10-19T02:31:22;20.60;;;18.70;;
4903;SDS011;2467;48.142;11.616;2023-10-19T02:31:56;21.00;;;19.10;;
4903;SDS011;2467;48.142;11.616;2023-10-19T02:32:28;21.27;;;19.10;;
4903;SDS011;2467;48.142;11.616;2023-10-19T02:33:01;20.77;;;18.70;;
4903;SDS011;2467;48.142;11.616;2023-10-19T02:33:34;23.52;;;20.98;;
4903;SDS011;2467;48.142;11.616;2023-10-19T02:34:07;22.48;;;20.38;;
4903;SDS011;2467;48.142;11.616;2023-10-19T02:34:41;22.35;;;20.15;;
4903;SDS011;2467;48.142;11.616;2023-10-19T02:35:13;20.80;;;18.63;;
4903;SDS011;2467;48.142;11.616;2023-10-19T02:35:45;23.98;;;20.85;;
4903;SDS011;2467;48.142;11.616;2023-10-19T02:36:19;23.70;;;20.30;;
4903;SDS011;2467;48.142;11.616;2023-10-19T02:36:52;23.50;;;21.20;;
4903;SDS011;2467;48.142;11.616;2023-10-19T02:37:24;21.90;;;19.73;;
4903;SDS011;2467;48.142;11.616;2023-10-19T02:37:56;22.88;;;20.27;;
4903;SDS011;2467;48.142;11.616;2023-10-19T02:38:29;22.25;;;19.85;;
4903;SDS011;2467;48.142;11.616;2023-10-19T02:39:01;24.15;;;21.95;;
4903;SDS011;2467;48.142;11.616;2023-10-19T02:39:40;20.17;;;18.27;;
4903;SDS011;2467;48.142;11.616;2023-10-19T02:40:14;21.67;;;19.63;;
4903;SDS011;2467;48.142;11.616;2023-10-19T02:40:50;22.20;;;20.00;;
4903;SDS011;2467;48.142;11.616;2023-10-19T02:41:22;20.30;;;18.30;;
4903;SDS011;2467;48.142;11.616;2023-10-19T02:41:55;21.20;;;19.10;;
4903;SDS011;2467;48.142;11.616;2023-10-19T02:42:27;22.67;;;20.67;;
4903;SDS011;2467;48.142;11.616;2023-10-19T02:42:59;21.30;;;19.30;;
4903;SDS011;2467;48.142;11.616;2023-10-19T02:43:34;23.08;;;20.27;;
4903;SDS011;2467;48.142;11.616;2023-10-19T02:44:08;22.85;;;20.80;;
4903;SDS011;2467;48.142;11.616;2023-10-19T02:44:41;21.80;;;19.80;;
4903;SDS011;2467;48.142;11.616;2023-10-19T02:45:14;20.83;;;18.80;;
4903;SDS011;2467;48.142;11.616;2023-10-19T02:45:46;20.27;;;18.30;;
4903;SDS011;2467;48.142;11.616;2023-10-19T02:46:19;20.67;;;18.58;;
4903;SDS011;2467;48.142;11.616;2023-10-19T02:46:52;21.85;;;19.75;;
4903;SDS011;2467;48.142;11.616;2023-10-19T02:47:30;20.33;;;18.35;;
4903;SDS011;2467;48.142;11.616;2023-10-19T02:48:02;22.55;;;20.35;;
4903;SDS011;2467;48.142;11.616;2023-10-19T02:48:35;20.60;;;18.70;;
4903;SDS011;2467;48.142;11.616;2023-10-19T02:49:08;19.98;;;18.02;;
4903;SDS011;2467;48.142;11.616;2023-10-19T02:49:42;20.63;;;18.75;;
4903;SDS011;2467;48.142;11.616;2023-10-19T02:50:22;20.10;;;18.30;;
4903;SDS011;2467;48.142;11.616;2023-10-19T02:50:57;23.40;;;21.15;;
4903;SDS011;2467;48.142;11.616;2023-10-19T02:51:37;21.40;;;19.17;;
4903;SDS011;2467;48.142;11.616;2023-10-19T02:52:10;22.55;;;20.15;;
4903;SDS011;2467;48.142;11.616;2023-10-19T02:52:44;20.52;;;18.55;;
4903;SDS011;2467;48.142;11.616;2023-10-19T02:53:17;21.80;;;19.80;;
4903;SDS011;2467;48.142;11.616;2023-10-19T02:53:50;20.58;;;18.42;;
4903;SDS011;2467;48.142;11.616;2023-10-19T02:54:23;22.35;;;20.35;;
4903;SDS011;2467;48.142;11.616;2023-10-19T02:54:57;20.23;;;18.27;;
4903;SDS011;2467;48.142;11.616;2023-10-19T02:55:31;18.80;;;17.00;;
4903;SDS011;2467;48.142;11.616;2023-10-19T02:56:10;19.83;;;17.95;;
4903;SDS011;2467;48.142;11.616;2023-10-19T02:56:44;20.50;;;18.42;;
4903;SDS011;2467;48.142;11.616;2023-10-19T02:57:19;19.63;;;17.73;;
4903;SDS011;2467;48.142;11.616;2023-10-19T02:57:51;21.38;;;19.38;;
4903;SDS011;2467;48.142;11.616;2023-10-19T02:58:23;22.23;;;20.23;;
4903;SDS011;2467;48.142;11.616;2023-10-19T02:58:55;21.20;;;19.20;;
4903;SDS011;2467;48.142;11.616;2023-10-19T02:59:35;22.00;;;19.92;;
4903;SDS011;2467;48.142;11.616;2023-10-19T03:00:08;20.45;;;18.55;;
4903;SDS011;2467;48.142;11.616;2023-10-19T03:00:42;21.38;;;19.08;;
4903;SDS011;2467;48.142;11.616;2023-10-19T03:01:17;21.15;;;18.95;;
4903;SDS011;2467;48.142;11.616;2023-10-19T03:01:53;21.08;;;19.00;;
4903;SDS011;2467;48.142;11.616;2023-10-19T03:02:33;22.13;;;19.88;;
4903;SDS011;2467;48.142;11.616;2023-10-19T03:03:07;22.98;;;20.88;;
4903;SDS011;2467;48.142;11.616;2023-10-19T03:03:40;20.33;;;18.50;;
4903;SDS011;2467;48.142;11.616;2023-10-19T03:04:14;21.50;;;19.55;;
4903;SDS011;2467;48.142;11.616;2023-10-19T03:04:46;21.58;;;19.27;;
4903;SDS011;2467;48.142;11.616;2023-10-19T03:05:20;21.40;;;19.38;;
4903;SDS011;2467;48.142;11.616;2023-10-19T03:05:51;19.33;;;17.63;;
4903;SDS011;2467;48.142;11.616;2023-10-19T03:06:26;20.77;;;18.67;;
4903;SDS011;2467;48.142;11.616;2023-10-19T03:07:02;19.85;;;18.08;;
4903;SDS011;2467;48.142;11.616;2023-10-19T03:07:38;20.33;;;18.40;;
4903;SDS011;2467;48.142;11.616;2023-10-19T03:08:10;20.00;;;18.00;;
4903;SDS011;2467;48.142;11.616;2023-10-19T03:08:42;23.20;;;20.83;;
4903;SDS011;2467;48.142;11.616;2023-10-19T03:09:17;21.45;;;19.55;;
4903;SDS011;2467;48.142;11.616;2023-10-19T03:10:01;21.95;;;19.65;;
4903;SDS011;2467;48.142;11.616;2023-10-19T03:10:33;19.73;;;17.80;;
4903;SDS011;2467;48.142;11.616;2023-10-19T03:11:13;18.75;;;16.95;;
4903;SDS011;2467;48.142;11.616;2023-10-19T03:11:45;20.05;;;18.25;;
4903;SDS011;2467;48.142;11.616;2023-10-19T03:12:18;21.20;;;19.20;;
4903;SDS011;2467;48.142;11.616;2023-10-19T03:12:51;21.55;;;19.38;;
4903;SDS011;2467;48.142;11.616;2023-10-19T03:13:24;21.70;;;19.17;;
4903;SDS011;2467;48.142;11.616;2023-10-19T03:13:55;20.58;;;18.55;;
4903;SDS011;2467;48.142;11.616;2023-10-19T03:14:28;21.05;;;19.00;;
4903;SDS011;2467;48.142;11.616;2023-10-19T03:15:00;20.65;;;18.60;;
4903;SDS011;2467;48.142;11.616;2023-10-19T03:15:33;19.80;;;17.80;;
4903;SDS011;2467;48.142;11.616;2023-10-19T03:16:06;21.27;;;19.00;;
4903;SDS011;2467;48.142;11.616;2023-10-19T03:16:40;20.67;;;18.60;;
4903;SDS011;2467;48.142;11.616;2023-10-19T03:17:13;20.10;;;18.20;;
4903;SDS011;2467;48.142;11.616;2023-10-19T03:17:46;21.67;;;19.55;;
4903;SDS011;2467;48.142;11.616;2023-10-19T03:18:18;18.70;;;17.10;;
4903;SDS011;2467;48.142;11.616;2023-10-19T03:18:50;22.00;;;19.83;;
4903;SDS011;2467;48.142;11.616;2023-10-19T03:19:23;21.80;;;19.92;;
4903;SDS011;2467;48.142;11.616;2023-10-19T03:19:56;20.48;;;18.58;;
4903;SDS011;2467;48.142;11.616;2023-10-19T03:20:28;21.00;;;18.85;;
4903;SDS011;2467;48.142;11.616;2023-10-19T03:21:04;19.45;;;17.85;;
4903;SDS011;2467;48.142;11.616;2023-10-19T03:21:37;23.52;;;19.20;;
4903;SDS011;2467;48.142;11.616;2023-10-19T03:22:13;20.13;;;18.27;;
4903;SDS011;2467;48.142;11.616;2023-10-19T03:22:45;20.75;;;18.80;;
4903;SDS011;2467;48.142;11.616;2023-10-19T03:23:17;20.25;;;18.35;;
4903;SDS011;2467;48.142;11.616;2023-10-19T03:23:49;19.90;;;18.10;;
4903;SDS011;2467;48.142;11.616;2023-10-19T03:24:21;19.63;;;17.77;;
4903;SDS011;2467;48.142;11.616;2023-10-19T03:25:09;20.38;;;18.30;;
4903;SDS011;2467;48.142;11.616;2023-10-19T03:25:56;21.58;;;19.48;;
4903;SDS011;2467;48.142;11.616;2023-10-19T03:26:43;20.27;;;18.35;;